Time,TemperatureF,DewpointF,PressureIn,WindDirection,WindDirectionDegrees,WindSpeedMPH,WindSpeedGustMPH,Humidity,HourlyPrecipIn,Conditions,Clouds,dailyrainin,SoftwareType,DateUTC
2013-01-04 00:02:00,31.1,24.8,30.39,SW,235,0.0,0.0,77,0.00,,OVC039,0.00,VWS V14.01,2013-01-04 06:02:00,
2013-01-04 00:07:00,31.0,25.0,30.39,SW,235,0.0,0.0,78,0.00,,OVC039,0.00,VWS V14.01,2013-01-04 06:07:00,
2013-01-04 00:12:00,30.8,24.8,30.39,SW,235,0.0,0.0,78,0.00,,OVC039,0.00,VWS V14.01,2013-01-04 06:12:00,
2013-01-04 00:17:00,30.5,24.5,30.39,SW,235,0.0,0.0,78,0.00,,OVC039,0.00,VWS V14.01,2013-01-04 06:17:00,
2013-01-04 00:22:00,30.2,24.2,30.39,SW,235,0.0,0.0,78,0.00,,OVC039,0.00,VWS V14.01,2013-01-04 06:22:00,
2013-01-04 00:27:00,29.9,24.2,30.38,SW,235,0.0,0.0,79,0.00,,OVC039,0.00,VWS V14.01,2013-01-04 06:27:00,
2013-01-04 00:32:00,29.7,24.0,30.38,SW,235,0.0,0.0,79,0.00,,OVC039,0.00,VWS V14.01,2013-01-04 06:32:00,
2013-01-04 00:37:00,29.4,23.7,30.38,SW,235,0.0,0.0,79,0.00,,OVC039,0.00,VWS V14.01,2013-01-04 06:37:00,
2013-01-04 00:42:00,29.2,23.8,30.37,SW,235,0.0,0.0,80,0.00,,BKN039,0.00,VWS V14.01,2013-01-04 06:42:00,
2013-01-04 00:47:00,28.9,23.5,30.37,SW,235,0.0,0.0,80,0.00,,BKN039,0.00,VWS V14.01,2013-01-04 06:47:00,
2013-01-04 00:52:00,28.7,23.3,30.37,SW,235,0.0,0.0,80,0.00,,SCT039,0.00,VWS V14.01,2013-01-04 06:52:00,
2013-01-04 00:57:00,28.5,23.4,30.38,SW,235,0.0,0.0,81,0.00,,SCT039,0.00,VWS V14.01,2013-01-04 06:57:00,
2013-01-04 01:02:00,28.2,23.1,30.38,SW,235,0.0,0.0,81,0.00,,SCT039,0.00,VWS V14.01,2013-01-04 07:02:00,
2013-01-04 01:07:00,28.1,23.0,30.38,SW,235,0.0,3.0,81,0.00,,SCT039,0.00,VWS V14.01,2013-01-04 07:07:00,
2013-01-04 01:12:00,28.2,23.4,30.39,SW,235,0.0,1.0,82,0.00,,SCT039,0.00,VWS V14.01,2013-01-04 07:12:00,
2013-01-04 01:17:00,28.2,23.4,30.39,SW,235,0.0,1.0,82,0.00,,SCT039,0.00,VWS V14.01,2013-01-04 07:17:00,
2013-01-04 01:22:00,28.3,23.5,30.39,SW,235,0.0,0.0,82,0.00,,SCT039,0.00,VWS V14.01,2013-01-04 07:22:00,
2013-01-04 01:27:00,28.4,23.3,30.39,SW,235,0.0,1.0,81,0.00,,SCT039,0.00,VWS V14.01,2013-01-04 07:27:00,
2013-01-04 01:32:00,28.4,23.3,30.39,SW,235,0.0,0.0,81,0.00,,SCT039,0.00,VWS V14.01,2013-01-04 07:32:00,
2013-01-04 01:37:00,28.3,23.2,30.39,SW,235,0.0,1.0,81,0.00,,SCT039,0.00,VWS V14.01,2013-01-04 07:37:00,
2013-01-04 01:42:00,28.3,23.2,30.39,SW,235,1.0,2.0,81,0.00,,CLR,0.00,VWS V14.01,2013-01-04 07:42:00,
2013-01-04 01:47:00,28.3,23.2,30.39,SW,235,0.0,3.0,81,0.00,,CLR,0.00,VWS V14.01,2013-01-04 07:47:00,
2013-01-04 01:52:00,28.3,23.2,30.39,SW,235,0.0,1.0,81,0.00,,CLR,0.00,VWS V14.01,2013-01-04 07:52:00,
2013-01-04 01:57:00,28.1,23.0,30.39,SW,235,1.0,3.0,81,0.00,,CLR,0.00,VWS V14.01,2013-01-04 07:57:00,
2013-01-04 02:02:00,28.2,23.4,30.39,SW,235,0.0,1.0,82,0.00,,CLR,0.00,VWS V14.01,2013-01-04 08:02:00,
2013-01-04 02:07:00,28.1,23.3,30.39,SW,235,0.0,3.0,82,0.00,,CLR,0.00,VWS V14.01,2013-01-04 08:07:00,
2013-01-04 02:12:00,28.0,22.9,30.39,SW,235,0.0,0.0,81,0.00,,CLR,0.00,VWS V14.01,2013-01-04 08:12:00,
2013-01-04 02:17:00,27.8,22.7,30.39,SW,235,0.0,0.0,81,0.00,,CLR,0.00,VWS V14.01,2013-01-04 08:17:00,
2013-01-04 02:22:00,27.6,22.5,30.39,SW,235,0.0,0.0,81,0.00,,CLR,0.00,VWS V14.01,2013-01-04 08:22:00,
2013-01-04 02:27:00,27.4,22.4,30.39,SW,235,0.0,0.0,81,0.00,,CLR,0.00,VWS V14.01,2013-01-04 08:27:00,
2013-01-04 02:32:00,27.1,22.1,30.39,SW,235,0.0,0.0,81,0.00,,CLR,0.00,VWS V14.01,2013-01-04 08:32:00,
2013-01-04 02:37:00,26.9,22.1,30.39,SW,235,0.0,0.0,82,0.00,,CLR,0.00,VWS V14.01,2013-01-04 08:37:00,
2013-01-04 02:42:00,26.8,22.0,30.39,SW,235,1.0,2.0,82,0.00,,CLR,0.00,VWS V14.01,2013-01-04 08:42:00,
2013-01-04 02:47:00,26.9,22.1,30.39,SW,235,0.0,2.0,82,0.00,,CLR,0.00,VWS V14.01,2013-01-04 08:47:00,
2013-01-04 02:52:00,26.8,22.0,30.39,SW,235,0.0,3.0,82,0.00,,CLR,0.00,VWS V14.01,2013-01-04 08:52:00,
2013-01-04 02:57:00,26.7,22.0,30.39,SW,235,0.0,3.0,82,0.00,,CLR,0.00,VWS V14.01,2013-01-04 08:57:00,
2013-01-04 03:02:00,26.6,21.9,30.39,SW,235,0.0,0.0,82,0.00,,CLR,0.00,VWS V14.01,2013-01-04 09:02:00,
2013-01-04 03:07:00,26.6,21.9,30.39,SW,235,0.0,0.0,82,0.00,,CLR,0.00,VWS V14.01,2013-01-04 09:07:00,
2013-01-04 03:12:00,26.5,21.8,30.40,SW,235,0.0,0.0,82,0.00,,CLR,0.00,VWS V14.01,2013-01-04 09:12:00,
2013-01-04 03:17:00,26.4,21.7,30.39,SW,235,0.0,4.0,82,0.00,,CLR,0.00,VWS V14.01,2013-01-04 09:17:00,
2013-01-04 03:22:00,26.3,21.9,30.39,SW,235,1.0,2.0,83,0.00,,CLR,0.00,VWS V14.01,2013-01-04 09:22:00,
2013-01-04 03:27:00,26.3,21.9,30.39,SW,235,0.0,3.0,83,0.00,,CLR,0.00,VWS V14.01,2013-01-04 09:27:00,
2013-01-04 03:32:00,26.4,22.0,30.39,WSW,244,0.0,1.0,83,0.00,,CLR,0.00,VWS V14.01,2013-01-04 09:32:00,
2013-01-04 03:37:00,26.4,22.0,30.39,WSW,244,0.0,3.0,83,0.00,,CLR,0.00,VWS V14.01,2013-01-04 09:37:00,
2013-01-04 03:42:00,26.4,22.0,30.40,WSW,244,0.0,1.0,83,0.00,,CLR,0.00,VWS V14.01,2013-01-04 09:42:00,
2013-01-04 03:47:00,26.3,21.9,30.40,WSW,244,0.0,1.0,83,0.00,,CLR,0.00,VWS V14.01,2013-01-04 09:47:00,
2013-01-04 03:52:00,26.3,21.9,30.40,WSW,244,0.0,1.0,83,0.00,,CLR,0.00,VWS V14.01,2013-01-04 09:52:00,
2013-01-04 03:57:00,26.2,21.8,30.39,WSW,244,0.0,2.0,83,0.00,,CLR,0.00,VWS V14.01,2013-01-04 09:57:00,
2013-01-04 04:02:00,26.1,21.6,30.39,WSW,244,0.0,0.0,83,0.00,,CLR,0.00,VWS V14.01,2013-01-04 10:02:00,
2013-01-04 04:07:00,25.8,21.4,30.40,WSW,244,0.0,0.0,83,0.00,,CLR,0.00,VWS V14.01,2013-01-04 10:07:00,
2013-01-04 04:12:00,25.4,21.0,30.40,WSW,244,0.0,0.0,83,0.00,,CLR,0.00,VWS V14.01,2013-01-04 10:12:00,
2013-01-04 04:17:00,25.2,20.8,30.40,WSW,244,0.0,0.0,83,0.00,,CLR,0.00,VWS V14.01,2013-01-04 10:17:00,
2013-01-04 04:22:00,24.9,20.5,30.39,WSW,244,0.0,0.0,83,0.00,,CLR,0.00,VWS V14.01,2013-01-04 10:22:00,
2013-01-04 04:27:00,24.5,20.1,30.40,WSW,244,0.0,0.0,83,0.00,,CLR,0.00,VWS V14.01,2013-01-04 10:27:00,
2013-01-04 04:32:00,24.4,20.0,30.40,WSW,244,0.0,0.0,83,0.00,,CLR,0.00,VWS V14.01,2013-01-04 10:32:00,
2013-01-04 04:37:00,24.5,20.1,30.40,WSW,244,0.0,1.0,83,0.00,,CLR,0.00,VWS V14.01,2013-01-04 10:37:00,
2013-01-04 04:42:00,24.5,20.1,30.40,WSW,244,0.0,0.0,83,0.00,,CLR,0.00,VWS V14.01,2013-01-04 10:42:00,
2013-01-04 04:47:00,24.6,20.5,30.40,WSW,244,0.0,1.0,84,0.00,,CLR,0.00,VWS V14.01,2013-01-04 10:47:00,
2013-01-04 04:52:00,24.6,20.2,30.40,WSW,244,0.0,0.0,83,0.00,,CLR,0.00,VWS V14.01,2013-01-04 10:52:00,
2013-01-04 04:57:00,24.4,20.3,30.40,WSW,244,0.0,0.0,84,0.00,,CLR,0.00,VWS V14.01,2013-01-04 10:57:00,
2013-01-04 05:02:00,24.4,20.3,30.40,WSW,244,0.0,0.0,84,0.00,,CLR,0.00,VWS V14.01,2013-01-04 11:02:00,
2013-01-04 05:07:00,24.3,20.2,30.40,WSW,244,0.0,2.0,84,0.00,,CLR,0.00,VWS V14.01,2013-01-04 11:07:00,
2013-01-04 05:12:00,24.2,20.1,30.40,WSW,244,0.0,0.0,84,0.00,,CLR,0.00,VWS V14.01,2013-01-04 11:12:00,
2013-01-04 05:17:00,24.2,20.1,30.40,WSW,244,0.0,0.0,84,0.00,,CLR,0.00,VWS V14.01,2013-01-04 11:17:00,
2013-01-04 05:23:00,24.1,20.0,30.41,WSW,244,0.0,0.0,84,0.00,,CLR,0.00,VWS V14.01,2013-01-04 11:23:00,
2013-01-04 05:28:00,24.1,20.0,30.40,WSW,244,0.0,1.0,84,0.00,,CLR,0.00,VWS V14.01,2013-01-04 11:28:00,
2013-01-04 05:33:00,24.2,20.1,30.41,WSW,244,0.0,1.0,84,0.00,,CLR,0.00,VWS V14.01,2013-01-04 11:33:00,
2013-01-04 05:38:00,24.2,20.1,30.41,WSW,244,0.0,1.0,84,0.00,,CLR,0.00,VWS V14.01,2013-01-04 11:38:00,
2013-01-04 05:43:00,24.1,20.0,30.41,WSW,244,0.0,0.0,84,0.00,,CLR,0.00,VWS V14.01,2013-01-04 11:43:00,
2013-01-04 05:48:00,23.8,19.7,30.41,WSW,244,0.0,0.0,84,0.00,,CLR,0.00,VWS V14.01,2013-01-04 11:48:00,
2013-01-04 05:53:00,23.5,19.4,30.41,WSW,244,0.0,1.0,84,0.00,,CLR,0.00,VWS V14.01,2013-01-04 11:53:00,
2013-01-04 05:58:00,23.4,19.3,30.41,WSW,244,0.0,2.0,84,0.00,,CLR,0.00,VWS V14.01,2013-01-04 11:58:00,
2013-01-04 06:03:00,23.3,19.2,30.41,WSW,244,0.0,0.0,84,0.00,,CLR,0.00,VWS V14.01,2013-01-04 12:03:00,
2013-01-04 06:08:00,22.9,18.8,30.41,WSW,244,0.0,0.0,84,0.00,,CLR,0.00,VWS V14.01,2013-01-04 12:08:00,
2013-01-04 06:13:00,22.6,18.5,30.41,WSW,244,0.0,0.0,84,0.00,,CLR,0.00,VWS V14.01,2013-01-04 12:13:00,
2013-01-04 06:18:00,22.3,18.2,30.41,WSW,244,0.0,0.0,84,0.00,,CLR,0.00,VWS V14.01,2013-01-04 12:18:00,
2013-01-04 06:23:00,22.0,17.9,30.41,WSW,244,0.0,0.0,84,0.00,,CLR,0.00,VWS V14.01,2013-01-04 12:23:00,
2013-01-04 06:28:00,21.8,17.7,30.41,WSW,244,0.0,0.0,84,0.00,,CLR,0.00,VWS V14.01,2013-01-04 12:28:00,
2013-01-04 06:33:00,21.7,17.6,30.41,WSW,244,0.0,0.0,84,0.00,,CLR,0.00,VWS V14.01,2013-01-04 12:33:00,
2013-01-04 06:38:00,21.6,17.5,30.42,WSW,244,0.0,0.0,84,0.00,,CLR,0.00,VWS V14.01,2013-01-04 12:38:00,
2013-01-04 06:43:00,21.6,17.5,30.42,WSW,244,0.0,0.0,84,0.00,,CLR,0.00,VWS V14.01,2013-01-04 12:43:00,
2013-01-04 06:48:00,21.4,17.3,30.42,WSW,244,0.0,0.0,84,0.00,,CLR,0.00,VWS V14.01,2013-01-04 12:48:00,
2013-01-04 06:53:00,21.3,17.2,30.42,WSW,244,0.0,0.0,84,0.00,,CLR,0.00,VWS V14.01,2013-01-04 12:53:00,
2013-01-04 06:58:00,21.4,17.3,30.42,WSW,244,0.0,0.0,84,0.00,,CLR,0.00,VWS V14.01,2013-01-04 12:58:00,
2013-01-04 07:03:00,21.6,17.5,30.42,WSW,244,0.0,0.0,84,0.00,,CLR,0.00,VWS V14.01,2013-01-04 13:03:00,
2013-01-04 07:08:00,21.8,17.7,30.42,WSW,244,0.0,0.0,84,0.00,,CLR,0.00,VWS V14.01,2013-01-04 13:08:00,
2013-01-04 07:13:00,22.1,18.0,30.41,WSW,244,0.0,0.0,84,0.00,,,0.00,VWS V14.01,2013-01-04 13:13:00,
2013-01-04 07:18:00,22.3,18.2,30.42,WSW,244,0.0,0.0,84,0.00,,,0.00,VWS V14.01,2013-01-04 13:18:00,
2013-01-04 07:23:00,22.6,18.5,30.42,WSW,244,0.0,0.0,84,0.00,,,0.00,VWS V14.01,2013-01-04 13:23:00,
2013-01-04 07:28:00,23.1,19.0,30.42,WSW,244,2.0,2.0,84,0.00,,,0.00,VWS V14.01,2013-01-04 13:28:00,
2013-01-04 07:33:00,23.6,19.5,30.42,WSW,244,0.0,2.0,84,0.00,,,0.00,VWS V14.01,2013-01-04 13:33:00,
2013-01-04 07:38:00,23.9,19.8,30.42,WSW,244,0.0,2.0,84,0.00,,,0.00,VWS V14.01,2013-01-04 13:38:00,
2013-01-04 07:43:00,24.3,20.2,30.42,WSW,244,0.0,2.0,84,0.00,,,0.00,VWS V14.01,2013-01-04 13:43:00,
2013-01-04 07:48:00,24.7,20.6,30.42,WSW,244,0.0,3.0,84,0.00,,,0.00,VWS V14.01,2013-01-04 13:48:00,
2013-01-04 07:53:00,25.0,20.9,30.43,WSW,244,1.0,2.0,84,0.00,,,0.00,VWS V14.01,2013-01-04 13:53:00,
2013-01-04 07:58:00,25.2,21.0,30.43,SW,234,0.0,2.0,84,0.00,,,0.00,VWS V14.01,2013-01-04 13:58:00,
2013-01-04 08:03:00,25.3,21.1,30.42,SW,234,0.0,1.0,84,0.00,,,0.00,VWS V14.01,2013-01-04 14:03:00,
2013-01-04 08:08:00,25.2,21.0,30.43,SW,234,4.0,4.0,84,0.00,,,0.00,VWS V14.01,2013-01-04 14:08:00,
2013-01-04 08:13:00,25.2,21.0,30.43,SW,234,0.0,1.0,84,0.00,,,0.00,VWS V14.01,2013-01-04 14:13:00,
2013-01-04 08:18:00,25.2,21.0,30.43,SW,234,2.0,2.0,84,0.00,,,0.00,VWS V14.01,2013-01-04 14:18:00,
2013-01-04 08:23:00,25.3,21.1,30.43,SW,234,0.0,2.0,84,0.00,,,0.00,VWS V14.01,2013-01-04 14:23:00,
2013-01-04 08:28:00,25.5,21.4,30.43,SW,234,0.0,2.0,84,0.00,,,0.00,VWS V14.01,2013-01-04 14:28:00,
2013-01-04 08:33:00,25.8,21.6,30.44,WSW,244,2.0,4.0,84,0.00,,,0.00,VWS V14.01,2013-01-04 14:33:00,
2013-01-04 08:38:00,26.0,21.8,30.44,WSW,253,2.0,7.0,84,0.00,,,0.00,VWS V14.01,2013-01-04 14:38:00,
2013-01-04 08:43:00,26.2,22.0,30.44,WSW,252,2.0,5.0,84,0.00,,,0.00,VWS V14.01,2013-01-04 14:43:00,
2013-01-04 08:48:00,26.5,22.3,30.45,WSW,252,1.0,5.0,84,0.00,,,0.00,VWS V14.01,2013-01-04 14:48:00,
2013-01-04 08:53:00,26.8,22.3,30.45,WSW,246,3.0,5.0,83,0.00,,,0.00,VWS V14.01,2013-01-04 14:53:00,
2013-01-04 08:58:00,27.1,22.6,30.45,SW,234,3.0,6.0,83,0.00,,,0.00,VWS V14.01,2013-01-04 14:58:00,
2013-01-04 09:03:00,27.4,22.9,30.45,SW,221,2.0,4.0,83,0.00,,,0.00,VWS V14.01,2013-01-04 15:03:00,
2013-01-04 09:08:00,27.6,23.1,30.45,WSW,248,5.0,6.0,83,0.00,,,0.00,VWS V14.01,2013-01-04 15:08:00,
2013-01-04 09:13:00,27.9,23.1,30.46,SW,227,1.0,4.0,82,0.00,,,0.00,VWS V14.01,2013-01-04 15:13:00,
2013-01-04 09:18:00,28.1,23.3,30.45,WSW,257,1.0,4.0,82,0.00,,,0.00,VWS V14.01,2013-01-04 15:18:00,
2013-01-04 09:23:00,28.4,23.6,30.46,WSW,245,2.0,7.0,82,0.00,,,0.00,VWS V14.01,2013-01-04 15:23:00,
2013-01-04 09:28:00,28.6,23.5,30.46,WSW,249,1.0,7.0,81,0.00,,,0.00,VWS V14.01,2013-01-04 15:28:00,
2013-01-04 09:33:00,28.8,23.7,30.47,WSW,243,2.0,4.0,81,0.00,,OVC033,0.00,VWS V14.01,2013-01-04 15:33:00,
2013-01-04 09:38:00,28.9,23.5,30.47,WSW,242,3.0,7.0,80,0.00,,OVC033,0.00,VWS V14.01,2013-01-04 15:38:00,
2013-01-04 09:43:00,29.0,23.6,30.47,SW,232,0.0,4.0,80,0.00,,OVC033,0.00,VWS V14.01,2013-01-04 15:43:00,
2013-01-04 09:48:00,29.2,23.5,30.47,SW,233,2.0,6.0,79,0.00,,OVC033,0.00,VWS V14.01,2013-01-04 15:48:00,
2013-01-04 09:53:00,29.3,23.6,30.47,SW,221,1.0,4.0,79,0.00,,OVC033,0.00,VWS V14.01,2013-01-04 15:53:00,
2013-01-04 09:58:00,29.4,23.7,30.48,WSW,248,0.0,4.0,79,0.00,,OVC033,0.00,VWS V14.01,2013-01-04 15:58:00,
2013-01-04 10:03:00,29.5,23.5,30.48,SW,218,2.0,6.0,78,0.00,,OVC033,0.00,VWS V14.01,2013-01-04 16:03:00,
2013-01-04 10:08:00,29.5,23.5,30.48,West,273,4.0,6.0,78,0.00,,OVC033,0.00,VWS V14.01,2013-01-04 16:08:00,
2013-01-04 10:13:00,29.6,23.6,30.48,WSW,250,4.0,6.0,78,0.00,,OVC033,0.00,VWS V14.01,2013-01-04 16:13:00,
2013-01-04 10:18:00,29.9,23.9,30.48,West,274,2.0,6.0,78,0.00,,OVC033,0.00,VWS V14.01,2013-01-04 16:18:00,
2013-01-04 10:23:00,30.2,23.9,30.47,WSW,242,5.0,5.0,77,0.00,,OVC033,0.00,VWS V14.01,2013-01-04 16:23:00,
2013-01-04 10:28:00,30.4,23.8,30.47,WSW,250,0.0,5.0,76,0.00,,OVC033,0.00,VWS V14.01,2013-01-04 16:28:00,
2013-01-04 10:33:00,31.0,24.3,30.47,WSW,258,0.0,5.0,76,0.00,,OVC033,0.00,VWS V14.01,2013-01-04 16:33:00,
2013-01-04 10:38:00,30.8,23.8,30.47,SW,236,3.0,7.0,75,0.00,,OVC033,0.00,VWS V14.01,2013-01-04 16:38:00,
2013-01-04 10:43:00,31.1,24.1,30.46,WSW,238,1.0,5.0,75,0.00,,OVC033,0.00,VWS V14.01,2013-01-04 16:43:00,
2013-01-04 10:48:00,31.4,24.4,30.46,WSW,242,5.0,5.0,75,0.00,,OVC033,0.00,VWS V14.01,2013-01-04 16:48:00,
2013-01-04 10:53:00,31.6,24.3,30.45,SW,234,0.0,6.0,74,0.00,,,0.00,VWS V14.01,2013-01-04 16:53:00,
2013-01-04 10:58:00,31.8,23.8,30.45,WSW,237,2.0,8.0,72,0.00,,,0.00,VWS V14.01,2013-01-04 16:58:00,
2013-01-04 11:03:00,31.7,24.0,30.44,WSW,253,4.0,8.0,73,0.00,,,0.00,VWS V14.01,2013-01-04 17:03:00,
2013-01-04 11:08:00,32.0,24.3,30.44,SW,218,3.0,8.0,73,0.00,,,0.00,VWS V14.01,2013-01-04 17:08:00,
2013-01-04 11:13:00,32.2,24.2,30.44,WSW,242,3.0,7.0,72,0.00,,,0.00,VWS V14.01,2013-01-04 17:13:00,
2013-01-04 11:18:00,32.6,24.9,30.44,SSW,213,2.0,8.0,73,0.00,,,0.00,VWS V14.01,2013-01-04 17:18:00,
2013-01-04 11:23:00,32.4,24.1,30.43,WSW,244,0.0,8.0,71,0.00,,,0.00,VWS V14.01,2013-01-04 17:23:00,
2013-01-04 11:28:00,32.8,24.8,30.43,WSW,238,4.0,8.0,72,0.00,,,0.00,VWS V14.01,2013-01-04 17:28:00,
2013-01-04 11:34:00,33.0,25.0,30.43,South,188,3.0,5.0,72,0.00,,,0.00,VWS V14.01,2013-01-04 17:34:00,
2013-01-04 11:39:00,33.2,24.8,30.43,SW,230,3.0,5.0,71,0.00,,,0.00,VWS V14.01,2013-01-04 17:39:00,
2013-01-04 11:44:00,33.0,24.6,30.42,WSW,243,5.0,7.0,71,0.00,,,0.00,VWS V14.01,2013-01-04 17:44:00,
2013-01-04 11:49:00,33.4,25.4,30.42,SSW,203,3.0,7.0,72,0.00,,,0.00,VWS V14.01,2013-01-04 17:49:00,
2013-01-04 11:54:00,33.4,25.0,30.42,SSW,212,4.0,4.0,71,0.00,,,0.00,VWS V14.01,2013-01-04 17:54:00,
2013-01-04 11:59:00,33.4,24.7,30.42,SW,221,0.0,4.0,70,0.00,,,0.00,VWS V14.01,2013-01-04 17:59:00,
2013-01-04 12:04:00,33.4,24.7,30.41,SSW,202,0.0,5.0,70,0.00,,,0.00,VWS V14.01,2013-01-04 18:04:00,
2013-01-04 12:09:00,33.5,24.8,30.41,WSW,248,2.0,6.0,70,0.00,,,0.00,VWS V14.01,2013-01-04 18:09:00,
2013-01-04 12:14:00,33.6,25.2,30.41,SW,225,0.0,4.0,71,0.00,,,0.00,VWS V14.01,2013-01-04 18:14:00,
2013-01-04 12:19:00,34.2,25.5,30.41,WSW,245,7.0,8.0,70,0.00,,,0.00,VWS V14.01,2013-01-04 18:19:00,
2013-01-04 12:24:00,33.9,24.8,30.41,SSW,201,2.0,9.0,69,0.00,,,0.00,VWS V14.01,2013-01-04 18:24:00,
2013-01-04 12:29:00,34.0,24.9,30.41,WSW,239,1.0,9.0,69,0.00,,,0.00,VWS V14.01,2013-01-04 18:29:00,
2013-01-04 12:34:00,34.4,25.6,30.40,SW,221,4.0,7.0,70,0.00,,CLR,0.00,VWS V14.01,2013-01-04 18:34:00,
2013-01-04 12:39:00,34.3,25.2,30.40,West,280,4.0,7.0,69,0.00,,CLR,0.00,VWS V14.01,2013-01-04 18:39:00,
2013-01-04 12:44:00,34.6,25.8,30.40,SSW,211,3.0,4.0,70,0.00,,CLR,0.00,VWS V14.01,2013-01-04 18:44:00,
2013-01-04 12:49:00,34.6,25.5,30.40,SW,236,4.0,7.0,69,0.00,,CLR,0.00,VWS V14.01,2013-01-04 18:49:00,
2013-01-04 12:54:00,34.4,25.0,30.40,WSW,240,2.0,6.0,68,0.00,,CLR,0.00,VWS V14.01,2013-01-04 18:54:00,
2013-01-04 12:59:00,34.0,24.6,30.40,WSW,250,1.0,7.0,68,0.00,,CLR,0.00,VWS V14.01,2013-01-04 18:59:00,
2013-01-04 13:04:00,34.6,25.8,30.39,SW,235,1.0,6.0,70,0.00,,CLR,0.00,VWS V14.01,2013-01-04 19:04:00,
2013-01-04 13:09:00,34.5,25.4,30.39,SW,218,3.0,8.0,69,0.00,,CLR,0.00,VWS V14.01,2013-01-04 19:09:00,
2013-01-04 13:14:00,34.9,25.8,30.39,SSW,207,1.0,2.0,69,0.00,,CLR,0.00,VWS V14.01,2013-01-04 19:14:00,
2013-01-04 13:19:00,35.1,26.0,30.39,SW,227,2.0,5.0,69,0.00,,CLR,0.00,VWS V14.01,2013-01-04 19:19:00,
2013-01-04 13:24:00,34.9,25.4,30.39,SSW,212,4.0,9.0,68,0.00,,CLR,0.00,VWS V14.01,2013-01-04 19:24:00,
2013-01-04 13:29:00,34.9,25.8,30.39,SSW,211,3.0,9.0,69,0.00,,CLR,0.00,VWS V14.01,2013-01-04 19:29:00,
2013-01-04 13:34:00,35.0,25.5,30.39,SW,214,3.0,7.0,68,0.00,,CLR,0.00,VWS V14.01,2013-01-04 19:34:00,
2013-01-04 13:39:00,35.1,26.3,30.39,WSW,252,4.0,7.0,70,0.00,,CLR,0.00,VWS V14.01,2013-01-04 19:39:00,
2013-01-04 13:44:00,35.1,26.0,30.39,SSW,203,5.0,6.0,69,0.00,,CLR,0.00,VWS V14.01,2013-01-04 19:44:00,
2013-01-04 13:49:00,35.1,26.0,30.39,SW,236,3.0,7.0,69,0.00,,CLR,0.00,VWS V14.01,2013-01-04 19:49:00,
2013-01-04 13:54:00,35.1,26.0,30.39,West,260,7.0,8.0,69,0.00,,CLR,0.00,VWS V14.01,2013-01-04 19:54:00,
2013-01-04 13:59:00,35.3,26.2,30.39,SSW,209,1.0,8.0,69,0.00,,CLR,0.00,VWS V14.01,2013-01-04 19:59:00,
2013-01-04 14:04:00,35.7,26.5,30.39,SW,220,0.0,5.0,69,0.00,,CLR,0.00,VWS V14.01,2013-01-04 20:04:00,
2013-01-04 14:09:00,35.8,26.3,30.39,SSW,206,4.0,8.0,68,0.00,,CLR,0.00,VWS V14.01,2013-01-04 20:09:00,
2013-01-04 14:14:00,35.9,26.0,30.39,West,263,2.0,7.0,67,0.00,,CLR,0.00,VWS V14.01,2013-01-04 20:14:00,
2013-01-04 14:19:00,36.2,26.3,30.39,SW,229,3.0,9.0,67,0.00,,CLR,0.00,VWS V14.01,2013-01-04 20:19:00,
2013-01-04 14:24:00,36.3,26.4,30.40,West,261,6.0,9.0,67,0.00,,CLR,0.00,VWS V14.01,2013-01-04 20:24:00,
2013-01-04 14:29:00,36.0,25.8,30.40,West,260,8.0,13.0,66,0.00,,CLR,0.00,VWS V14.01,2013-01-04 20:29:00,
2013-01-04 14:34:00,36.0,26.1,30.40,WSW,248,4.0,7.0,67,0.00,,CLR,0.00,VWS V14.01,2013-01-04 20:34:00,
2013-01-04 14:39:00,36.1,26.2,30.40,SSW,194,6.0,9.0,67,0.00,,CLR,0.00,VWS V14.01,2013-01-04 20:39:00,
2013-01-04 14:44:00,36.2,26.7,30.39,WSW,252,3.0,6.0,68,0.00,,CLR,0.00,VWS V14.01,2013-01-04 20:44:00,
2013-01-04 14:49:00,36.1,26.2,30.39,SW,233,0.0,6.0,67,0.00,,CLR,0.00,VWS V14.01,2013-01-04 20:49:00,
2013-01-04 14:54:00,36.1,26.2,30.39,WSW,238,4.0,9.0,67,0.00,,CLR,0.00,VWS V14.01,2013-01-04 20:54:00,
2013-01-04 14:59:00,36.1,26.2,30.39,SW,219,7.0,10.0,67,0.00,,CLR,0.00,VWS V14.01,2013-01-04 20:59:00,
2013-01-04 15:04:00,36.1,26.6,30.39,SW,236,1.0,6.0,68,0.00,,CLR,0.00,VWS V14.01,2013-01-04 21:04:00,
2013-01-04 15:09:00,36.1,26.6,30.39,SSW,204,3.0,8.0,68,0.00,,CLR,0.00,VWS V14.01,2013-01-04 21:09:00,
2013-01-04 15:14:00,36.0,26.1,30.39,SSW,198,0.0,10.0,67,0.00,,CLR,0.00,VWS V14.01,2013-01-04 21:14:00,
2013-01-04 15:19:00,36.0,26.5,30.39,SSW,211,2.0,10.0,68,0.00,,CLR,0.00,VWS V14.01,2013-01-04 21:19:00,
2013-01-04 15:24:00,36.2,26.7,30.39,SW,224,4.0,4.0,68,0.00,,CLR,0.00,VWS V14.01,2013-01-04 21:24:00,
2013-01-04 15:29:00,36.0,26.5,30.39,SSW,210,1.0,9.0,68,0.00,,CLR,0.00,VWS V14.01,2013-01-04 21:29:00,
2013-01-04 15:34:00,35.9,26.7,30.39,SSW,208,2.0,6.0,69,0.00,,CLR,0.00,VWS V14.01,2013-01-04 21:34:00,
2013-01-04 15:39:00,35.9,26.7,30.39,WSW,243,7.0,7.0,69,0.00,,CLR,0.00,VWS V14.01,2013-01-04 21:39:00,
2013-01-04 15:44:00,35.8,26.6,30.39,SW,227,4.0,12.0,69,0.00,,CLR,0.00,VWS V14.01,2013-01-04 21:44:00,
2013-01-04 15:49:00,35.9,26.7,30.39,SW,234,1.0,12.0,69,0.00,,CLR,0.00,VWS V14.01,2013-01-04 21:49:00,
2013-01-04 15:54:00,35.8,26.6,30.39,SSW,206,3.0,5.0,69,0.00,,CLR,0.00,VWS V14.01,2013-01-04 21:54:00,
2013-01-04 15:59:00,35.7,26.9,30.39,SSW,210,2.0,5.0,70,0.00,,CLR,0.00,VWS V14.01,2013-01-04 21:59:00,
2013-01-04 16:04:00,35.6,26.8,30.39,SSW,212,3.0,6.0,70,0.00,,CLR,0.00,VWS V14.01,2013-01-04 22:04:00,
2013-01-04 16:09:00,35.5,26.7,30.38,SSW,202,1.0,6.0,70,0.00,,CLR,0.00,VWS V14.01,2013-01-04 22:09:00,
2013-01-04 16:14:00,35.5,26.7,30.38,SW,217,0.0,3.0,70,0.00,,CLR,0.00,VWS V14.01,2013-01-04 22:14:00,
2013-01-04 16:19:00,35.3,26.9,30.38,SW,215,1.0,3.0,71,0.00,,CLR,0.00,VWS V14.01,2013-01-04 22:19:00,
2013-01-04 16:24:00,35.1,26.7,30.38,SW,215,0.0,2.0,71,0.00,,CLR,0.00,VWS V14.01,2013-01-04 22:24:00,
2013-01-04 16:29:00,34.9,26.5,30.38,SW,215,0.0,4.0,71,0.00,,CLR,0.00,VWS V14.01,2013-01-04 22:29:00,
2013-01-04 16:34:00,34.7,26.3,30.38,SW,215,0.0,2.0,71,0.00,,CLR,0.00,VWS V14.01,2013-01-04 22:34:00,
2013-01-04 16:39:00,34.4,26.3,30.37,SW,215,0.0,3.0,72,0.00,,CLR,0.00,VWS V14.01,2013-01-04 22:39:00,
2013-01-04 16:44:00,34.2,26.1,30.37,SW,215,0.0,3.0,72,0.00,,CLR,0.00,VWS V14.01,2013-01-04 22:44:00,
2013-01-04 16:49:00,34.0,25.9,30.37,SW,215,0.0,3.0,72,0.00,,CLR,0.00,VWS V14.01,2013-01-04 22:49:00,
2013-01-04 16:54:00,33.8,25.7,30.37,SW,215,0.0,0.0,72,0.00,,CLR,0.00,VWS V14.01,2013-01-04 22:54:00,
2013-01-04 16:59:00,33.7,26.0,30.37,SW,215,0.0,0.0,73,0.00,,CLR,0.00,VWS V14.01,2013-01-04 22:59:00,
2013-01-04 17:04:00,33.5,25.8,30.37,SW,215,1.0,1.0,73,0.00,,CLR,0.00,VWS V14.01,2013-01-04 23:04:00,
2013-01-04 17:09:00,33.3,25.6,30.37,SW,215,0.0,2.0,73,0.00,,CLR,0.00,VWS V14.01,2013-01-04 23:09:00,
2013-01-04 17:14:00,33.1,25.4,30.37,SW,215,0.0,0.0,73,0.00,,CLR,0.00,VWS V14.01,2013-01-04 23:14:00,
2013-01-04 17:19:00,32.9,25.2,30.37,SW,215,0.0,1.0,73,0.00,,CLR,0.00,VWS V14.01,2013-01-04 23:19:00,
2013-01-04 17:24:00,32.8,25.4,30.37,SW,215,0.0,1.0,74,0.00,,CLR,0.00,VWS V14.01,2013-01-04 23:24:00,
2013-01-04 17:29:00,32.7,25.3,30.37,SW,215,0.0,1.0,74,0.00,,CLR,0.00,VWS V14.01,2013-01-04 23:29:00,
2013-01-04 17:34:00,32.5,25.1,30.37,SW,215,0.0,0.0,74,0.00,,CLR,0.00,VWS V14.01,2013-01-04 23:34:00,
2013-01-04 17:39:00,32.3,25.0,30.36,SW,215,0.0,0.0,74,0.00,,CLR,0.00,VWS V14.01,2013-01-04 23:39:00,
2013-01-04 17:44:00,32.0,25.0,30.37,SW,215,0.0,0.0,75,0.00,,CLR,0.00,VWS V14.01,2013-01-04 23:44:00,
2013-01-04 17:49:00,31.7,24.7,30.37,SW,215,0.0,0.0,75,0.00,,CLR,0.00,VWS V14.01,2013-01-04 23:49:00,
2013-01-04 17:54:00,31.4,24.4,30.37,SW,215,0.0,0.0,75,0.00,,CLR,0.00,VWS V14.01,2013-01-04 23:54:00,
2013-01-04 17:59:00,31.0,24.3,30.36,SW,215,0.0,0.0,76,0.00,,CLR,0.00,VWS V14.01,2013-01-04 23:59:00,
2013-01-04 18:04:00,30.7,24.4,30.36,SW,215,0.0,0.0,77,0.00,,CLR,0.00,VWS V14.01,2013-01-05 00:04:00,
2013-01-04 18:09:00,30.4,24.1,30.35,SW,215,0.0,0.0,77,0.00,,CLR,0.00,VWS V14.01,2013-01-05 00:09:00,
2013-01-04 18:14:00,30.1,23.8,30.35,SW,215,0.0,0.0,77,0.00,,CLR,0.00,VWS V14.01,2013-01-05 00:14:00,
2013-01-04 18:19:00,29.8,23.8,30.35,SW,215,0.0,0.0,78,0.00,,CLR,0.00,VWS V14.01,2013-01-05 00:19:00,
2013-01-04 18:24:00,29.7,23.7,30.35,SW,215,0.0,0.0,78,0.00,,CLR,0.00,VWS V14.01,2013-01-05 00:24:00,
2013-01-04 18:29:00,29.5,23.5,30.36,SW,215,0.0,0.0,78,0.00,,CLR,0.00,VWS V14.01,2013-01-05 00:29:00,
2013-01-04 18:34:00,29.3,23.6,30.36,SW,215,0.0,0.0,79,0.00,,CLR,0.00,VWS V14.01,2013-01-05 00:34:00,
2013-01-04 18:39:00,29.0,23.3,30.36,SW,215,0.0,0.0,79,0.00,,CLR,0.00,VWS V14.01,2013-01-05 00:39:00,
2013-01-04 18:44:00,28.9,23.2,30.36,SW,215,0.0,0.0,79,0.00,,CLR,0.00,VWS V14.01,2013-01-05 00:44:00,
2013-01-04 18:50:00,28.6,22.9,30.36,SW,215,0.0,0.0,79,0.00,,CLR,0.00,VWS V14.01,2013-01-05 00:50:00,
2013-01-04 18:55:00,28.4,23.0,30.36,SW,215,0.0,0.0,80,0.00,,CLR,0.00,VWS V14.01,2013-01-05 00:55:00,
2013-01-04 19:00:00,28.2,22.8,30.36,SW,215,0.0,0.0,80,0.00,,CLR,0.00,VWS V14.01,2013-01-05 01:00:00,
2013-01-04 19:05:00,27.9,22.5,30.36,SW,215,0.0,0.0,80,0.00,,CLR,0.00,VWS V14.01,2013-01-05 01:05:00,
2013-01-04 19:10:00,27.8,22.4,30.37,SW,215,0.0,0.0,80,0.00,,CLR,0.00,VWS V14.01,2013-01-05 01:10:00,
2013-01-04 19:15:00,27.7,22.6,30.37,SW,215,0.0,0.0,81,0.00,,CLR,0.00,VWS V14.01,2013-01-05 01:15:00,
2013-01-04 19:20:00,27.7,22.6,30.37,SW,215,0.0,1.0,81,0.00,,CLR,0.00,VWS V14.01,2013-01-05 01:20:00,
2013-01-04 19:25:00,27.9,22.8,30.37,SW,215,0.0,3.0,81,0.00,,CLR,0.00,VWS V14.01,2013-01-05 01:25:00,
2013-01-04 19:30:00,28.4,23.6,30.37,SW,215,2.0,3.0,82,0.00,,CLR,0.00,VWS V14.01,2013-01-05 01:30:00,
2013-01-04 19:35:00,28.9,23.8,30.37,SW,215,1.0,4.0,81,0.00,,CLR,0.00,VWS V14.01,2013-01-05 01:35:00,
2013-01-04 19:40:00,29.3,24.2,30.37,SW,215,0.0,4.0,81,0.00,,CLR,0.00,VWS V14.01,2013-01-05 01:40:00,
2013-01-04 19:45:00,29.6,24.2,30.37,SW,215,0.0,1.0,80,0.00,,CLR,0.00,VWS V14.01,2013-01-05 01:45:00,
2013-01-04 19:50:00,29.7,24.3,30.37,SSW,197,4.0,4.0,80,0.00,,CLR,0.00,VWS V14.01,2013-01-05 01:50:00,
2013-01-04 19:55:00,30.0,24.6,30.37,South,188,0.0,3.0,80,0.00,,CLR,0.00,VWS V14.01,2013-01-05 01:55:00,
2013-01-04 20:00:00,30.3,24.6,30.37,South,188,0.0,5.0,79,0.00,,CLR,0.00,VWS V14.01,2013-01-05 02:00:00,
2013-01-04 20:05:00,30.6,24.9,30.37,South,188,2.0,4.0,79,0.00,,CLR,0.00,VWS V14.01,2013-01-05 02:05:00,
2013-01-04 20:10:00,30.8,25.1,30.37,South,188,2.0,5.0,79,0.00,,CLR,0.00,VWS V14.01,2013-01-05 02:10:00,
2013-01-04 20:15:00,30.9,24.9,30.37,South,188,1.0,4.0,78,0.00,,CLR,0.00,VWS V14.01,2013-01-05 02:15:00,
2013-01-04 20:20:00,31.0,25.0,30.37,South,188,1.0,4.0,78,0.00,,CLR,0.00,VWS V14.01,2013-01-05 02:20:00,
2013-01-04 20:25:00,31.1,25.0,30.36,South,188,2.0,2.0,78,0.00,,CLR,0.00,VWS V14.01,2013-01-05 02:25:00,
2013-01-04 20:30:00,31.2,24.8,30.37,South,188,0.0,2.0,77,0.00,,CLR,0.00,VWS V14.01,2013-01-05 02:30:00,
2013-01-04 20:35:00,31.2,25.1,30.36,South,188,0.0,3.0,78,0.00,,CLR,0.00,VWS V14.01,2013-01-05 02:35:00,
2013-01-04 20:40:00,31.3,24.9,30.36,South,188,1.0,4.0,77,0.00,,CLR,0.00,VWS V14.01,2013-01-05 02:40:00,
2013-01-04 20:45:00,31.3,24.9,30.36,South,188,0.0,0.0,77,0.00,,CLR,0.00,VWS V14.01,2013-01-05 02:45:00,
2013-01-04 20:50:00,31.3,24.9,30.36,South,188,0.0,2.0,77,0.00,,CLR,0.00,VWS V14.01,2013-01-05 02:50:00,
2013-01-04 20:55:00,31.4,25.0,30.36,South,188,3.0,4.0,77,0.00,,CLR,0.00,VWS V14.01,2013-01-05 02:55:00,
2013-01-04 21:00:00,31.3,24.9,30.36,South,188,0.0,4.0,77,0.00,,CLR,0.00,VWS V14.01,2013-01-05 03:00:00,
2013-01-04 21:05:00,31.2,24.5,30.36,South,188,0.0,0.0,76,0.00,,CLR,0.00,VWS V14.01,2013-01-05 03:05:00,
2013-01-04 21:10:00,31.1,24.8,30.36,South,188,0.0,3.0,77,0.00,,CLR,0.00,VWS V14.01,2013-01-05 03:10:00,
2013-01-04 21:15:00,31.1,24.8,30.35,South,188,0.0,2.0,77,0.00,,CLR,0.00,VWS V14.01,2013-01-05 03:15:00,
2013-01-04 21:20:00,31.2,24.8,30.35,South,188,0.0,3.0,77,0.00,,CLR,0.00,VWS V14.01,2013-01-05 03:20:00,
2013-01-04 21:25:00,31.1,24.8,30.36,South,188,0.0,2.0,77,0.00,,CLR,0.00,VWS V14.01,2013-01-05 03:25:00,
2013-01-04 21:30:00,31.0,24.6,30.35,South,188,1.0,5.0,77,0.00,,CLR,0.00,VWS V14.01,2013-01-05 03:30:00,
2013-01-04 21:35:00,31.1,24.8,30.35,South,188,1.0,5.0,77,0.00,,CLR,0.00,VWS V14.01,2013-01-05 03:35:00,
2013-01-04 21:40:00,31.1,24.8,30.36,South,187,2.0,5.0,77,0.00,,CLR,0.00,VWS V14.01,2013-01-05 03:40:00,
2013-01-04 21:45:00,31.2,24.8,30.36,South,169,2.0,5.0,77,0.00,,CLR,0.00,VWS V14.01,2013-01-05 03:45:00,
2013-01-04 21:50:00,31.1,24.8,30.36,South,169,0.0,5.0,77,0.00,,CLR,0.00,VWS V14.01,2013-01-05 03:50:00,
2013-01-04 21:55:00,31.1,25.0,30.36,South,171,1.0,6.0,78,0.00,,CLR,0.00,VWS V14.01,2013-01-05 03:55:00,
2013-01-04 22:00:00,31.1,24.8,30.36,South,171,6.0,6.0,77,0.00,,CLR,0.00,VWS V14.01,2013-01-05 04:00:00,
2013-01-04 22:05:00,31.2,24.8,30.36,South,171,0.0,4.0,77,0.00,,CLR,0.00,VWS V14.01,2013-01-05 04:05:00,
2013-01-04 22:10:00,31.2,24.8,30.35,South,171,4.0,6.0,77,0.00,,CLR,0.00,VWS V14.01,2013-01-05 04:10:00,
2013-01-04 22:15:00,31.4,25.0,30.35,South,171,2.0,6.0,77,0.00,,CLR,0.00,VWS V14.01,2013-01-05 04:15:00,
2013-01-04 22:20:00,31.5,25.1,30.35,South,171,6.0,7.0,77,0.00,,CLR,0.00,VWS V14.01,2013-01-05 04:20:00,
2013-01-04 22:25:00,31.6,25.2,30.36,South,178,0.0,7.0,77,0.00,,CLR,0.00,VWS V14.01,2013-01-05 04:25:00,
2013-01-04 22:30:00,31.6,24.9,30.36,South,186,2.0,7.0,76,0.00,,CLR,0.00,VWS V14.01,2013-01-05 04:30:00,
2013-01-04 22:35:00,31.6,24.9,30.35,South,186,3.0,3.0,76,0.00,,CLR,0.00,VWS V14.01,2013-01-05 04:35:00,
2013-01-04 22:40:00,31.6,25.2,30.35,South,186,2.0,4.0,77,0.00,,CLR,0.00,VWS V14.01,2013-01-05 04:40:00,
2013-01-04 22:45:00,31.5,25.1,30.36,South,186,0.0,3.0,77,0.00,,CLR,0.00,VWS V14.01,2013-01-05 04:45:00,
2013-01-04 22:50:00,31.6,25.2,30.36,South,186,4.0,4.0,77,0.00,,CLR,0.00,VWS V14.01,2013-01-05 04:50:00,
2013-01-04 22:55:00,31.6,25.5,30.35,South,186,3.0,5.0,78,0.00,,CLR,0.00,VWS V14.01,2013-01-05 04:55:00,
2013-01-04 23:00:00,31.6,25.5,30.35,South,186,2.0,5.0,78,0.00,,CLR,0.00,VWS V14.01,2013-01-05 05:00:00,
2013-01-04 23:01:00,31.6,25.5,30.35,South,186,1.0,5.0,78,0.00,,CLR,0.00,VWS V14.01,2013-01-05 05:01:00,
2013-01-04 23:10:00,31.4,25.4,30.36,South,186,4.0,5.0,78,0.00,,CLR,0.00,VWS V14.01,2013-01-05 05:10:00,
2013-01-04 23:11:00,31.4,25.4,30.36,South,186,1.0,5.0,78,0.00,,CLR,0.00,VWS V14.01,2013-01-05 05:11:00,
2013-01-04 23:20:00,31.5,25.4,30.35,South,186,0.0,4.0,78,0.00,,CLR,0.00,VWS V14.01,2013-01-05 05:20:00,
2013-01-04 23:25:00,31.6,25.5,30.35,South,185,1.0,5.0,78,0.00,,CLR,0.00,VWS V14.01,2013-01-05 05:25:00,
2013-01-04 23:30:00,31.6,25.5,30.35,South,184,2.0,6.0,78,0.00,,CLR,0.00,VWS V14.01,2013-01-05 05:30:00,
2013-01-04 23:35:00,31.6,25.5,30.35,South,184,3.0,5.0,78,0.00,,CLR,0.00,VWS V14.01,2013-01-05 05:35:00,
2013-01-04 23:40:00,31.6,25.2,30.35,South,184,1.0,5.0,77,0.00,,CLR,0.00,VWS V14.01,2013-01-05 05:40:00,
2013-01-04 23:45:00,31.5,25.1,30.35,South,184,3.0,5.0,77,0.00,,CLR,0.00,VWS V14.01,2013-01-05 05:45:00,
2013-01-04 23:50:00,31.4,25.0,30.34,South,191,0.0,5.0,77,0.00,,CLR,0.00,VWS V14.01,2013-01-05 05:50:00,
2013-01-04 23:55:00,31.3,24.9,30.34,South,191,0.0,4.0,77,0.00,,CLR,0.00,VWS V14.01,2013-01-05 05:55:00,